Aviation Digital Data Service (ADDS)

Output produced by METARs form (1503 UTC 23 September 2020)
found at http://aviationweather.gov/metar/data/
 
KCXO 231453Z 33008KT 4SM BR OVC007 22/21 A2985 RMK AO2 CIG 005V010 SLP105 T02170206 51016
KCXO 231442Z 2315/2412 34009KT P6SM OVC006 
     TEMPO 2315/2316 4SM BR OVC004 
     FM231600 34012KT P6SM VCSH BKN005 OVC010 
     FM240000 35007KT P6SM OVC015 
     FM240600 34005KT P6SM BKN015 BKN050